Time;durP1;ratioP1;P1;durP2;ratioP2;P2;SDS_P1;SDS_P2;PMS_P1;PMS_P2;Temp;Humidity;BMP_temperature;BMP_pressure;BME280_temperature;BME280_humidity;BME280_pressure;Samples;Min_cycle;Max_cycle;Signal;HPM_P1;HPM_P2
2023/05/10 00:00:09;;;;;;;2.77;0.97;;;;;;;15.23;100.00;95563.78;5005314;28;20487;-85
2023/05/10 00:02:39;;;;;;;1.40;0.90;;;;;;;15.00;100.00;95558.88;5014332;28;20118;-86
2023/05/10 00:05:05;;;;;;;1.00;0.60;;;;;;;14.98;100.00;95566.19;5003355;28;20817;-85
2023/05/10 00:07:30;;;;;;;0.77;0.67;;;;;;;14.82;100.00;95568.25;5011287;28;20509;-85
2023/05/10 00:09:56;;;;;;;1.20;0.87;;;;;;;14.96;100.00;95562.97;5011903;28;20018;-85
2023/05/10 00:12:21;;;;;;;1.10;0.70;;;;;;;14.93;100.00;95568.66;4997794;28;20517;-85
2023/05/10 00:14:47;;;;;;;1.23;0.87;;;;;;;15.02;100.00;95562.97;5005907;28;20735;-85
2023/05/10 00:17:12;;;;;;;1.47;0.80;;;;;;;14.99;100.00;95570.47;5010458;28;20492;-85
2023/05/10 00:19:38;;;;;;;0.93;0.70;;;;;;;14.98;100.00;95572.31;4993550;28;20029;-86
2023/05/10 00:22:03;;;;;;;2.63;0.93;;;;;;;15.06;100.00;95580.06;5008386;28;20033;-85
2023/05/10 00:24:29;;;;;;;1.90;0.90;;;;;;;15.02;100.00;95570.06;5000575;28;20278;-85
2023/05/10 00:26:54;;;;;;;2.57;0.80;;;;;;;14.98;100.00;95566.19;4985819;28;20033;-86
2023/05/10 00:29:20;;;;;;;4.17;0.87;;;;;;;14.94;100.00;95562.34;5009316;28;20025;-85
2023/05/10 00:31:46;;;;;;;1.30;0.90;;;;;;;14.85;100.00;95561.69;5001712;28;20830;-86
2023/05/10 00:34:12;;;;;;;2.20;0.87;;;;;;;15.04;100.00;95565.38;5006404;28;20034;-85
2023/05/10 00:36:38;;;;;;;1.90;1.07;;;;;;;14.74;100.00;95571.06;4990351;28;20427;-85
2023/05/10 00:39:03;;;;;;;1.80;1.00;;;;;;;14.79;100.00;95565.19;5012658;28;20032;-85
2023/05/10 00:41:32;;;;;;;1.80;1.10;;;;;;;14.76;100.00;95569.03;4994561;28;20045;-86
2023/05/10 00:43:58;;;;;;;1.30;0.90;;;;;;;14.67;100.00;95570.22;5006003;28;20095;-86
2023/05/10 00:46:28;;;;;;;1.73;1.00;;;;;;;14.66;100.00;95573.09;4989912;28;20391;-85
2023/05/10 00:48:54;;;;;;;3.20;1.20;;;;;;;14.60;100.00;95569.41;5013264;28;20103;-85
2023/05/10 00:51:19;;;;;;;1.40;1.00;;;;;;;14.63;100.00;95565.56;4996483;28;20479;-85
2023/05/10 00:53:58;;;;;;;1.73;1.07;;;;;;;14.70;100.00;95569.84;4998748;28;20033;-86
2023/05/10 00:56:25;;;;;;;2.03;1.00;;;;;;;14.58;100.00;95574.06;5003642;28;20507;-86
2023/05/10 00:58:51;;;;;;;3.00;1.10;;;;;;;14.58;100.00;95576.72;5002978;28;20024;-85
2023/05/10 01:01:22;;;;;;;1.50;1.00;;;;;;;14.65;100.00;95569.59;5007264;28;20029;-85
2023/05/10 01:03:48;;;;;;;2.50;0.93;;;;;;;14.73;100.00;95569.44;5005472;28;20087;-86
2023/05/10 01:06:14;;;;;;;2.27;1.10;;;;;;;14.86;100.00;95568.66;4995455;28;20030;-86
2023/05/10 01:08:40;;;;;;;1.53;1.03;;;;;;;14.77;100.00;95567.19;5012287;28;20525;-86
2023/05/10 01:11:07;;;;;;;1.43;1.00;;;;;;;14.81;100.00;95571.88;4996454;28;20498;-86
2023/05/10 01:13:39;;;;;;;1.63;0.90;;;;;;;14.76;100.00;95571.69;5005974;28;20033;-86
2023/05/10 01:16:06;;;;;;;1.70;1.00;;;;;;;14.64;100.00;95575.94;5000833;28;20074;-85
2023/05/10 01:18:37;;;;;;;3.43;1.03;;;;;;;14.64;100.00;95573.28;4996736;28;20022;-86
2023/05/10 01:21:35;;;;;;;1.30;0.80;;;;;;;14.44;100.00;95575.03;4996237;28;20164;-86
2023/05/10 01:24:03;;;;;;;0.97;0.43;;;;;;;14.42;100.00;95587.63;4977442;28;20030;-85
2023/05/10 01:26:32;;;;;;;1.30;0.53;;;;;;;14.38;100.00;95590.69;5009445;28;20025;-85
2023/05/10 01:29:29;;;;;;;0.87;0.50;;;;;;;14.32;100.00;95585.38;4997577;28;20091;-86
2023/05/10 01:32:27;;;;;;;1.43;0.60;;;;;;;14.36;100.00;95586.63;4973268;28;20070;-86
2023/05/10 01:34:57;;;;;;;0.80;0.50;;;;;;;14.38;100.00;95585.41;5008455;28;20037;-85
2023/05/10 01:37:40;;;;;;;3.40;0.50;;;;;;;14.46;100.00;95592.34;5003507;28;20038;-87
2023/05/10 01:40:12;;;;;;;;;;;;;;;14.39;100.00;95589.69;5004974;28;20121;-86
2023/05/10 01:42:47;;;;;;;0.43;0.20;;;;;;;14.20;100.00;95589.59;5012045;28;20334;-86
2023/05/10 01:45:33;;;;;;;0.60;0.40;;;;;;;14.42;100.00;95592.91;5010395;28;20040;-86
2023/05/10 01:48:09;;;;;;;0.60;0.40;;;;;;;14.21;100.00;95592.03;5019819;28;20041;-86
2023/05/10 01:50:37;;;;;;;1.27;0.40;;;;;;;14.22;100.00;95598.13;5003399;28;20034;-86
2023/05/10 01:53:07;;;;;;;0.70;0.40;;;;;;;14.09;100.00;95593.63;4993467;28;20065;-85
2023/05/10 01:55:45;;;;;;;1.00;0.30;;;;;;;14.18;100.00;95595.06;4999248;28;20083;-86
2023/05/10 01:58:15;;;;;;;0.50;0.30;;;;;;;14.03;100.00;95597.06;4996972;28;20072;-86
2023/05/10 02:00:46;;;;;;;4.87;0.30;;;;;;;14.27;100.00;95604.47;4993668;28;20029;-86
2023/05/10 02:03:13;;;;;;;0.87;0.47;;;;;;;14.36;100.00;95603.31;5016491;28;20454;-86
2023/05/10 02:05:49;;;;;;;0.40;0.30;;;;;;;14.38;100.00;95608.38;5011983;28;20702;-86
2023/05/10 02:08:17;;;;;;;2.97;0.30;;;;;;;14.45;100.00;95613.69;5016797;28;20491;-86
2023/05/10 02:10:44;;;;;;;0.20;0.20;;;;;;;14.25;100.00;95611.81;5011890;28;20379;-86
2023/05/10 02:13:21;;;;;;;1.17;0.40;;;;;;;14.07;100.00;95611.50;4998649;28;20030;-86
2023/05/10 02:15:48;;;;;;;0.67;0.40;;;;;;;14.18;100.00;95613.59;5009218;28;20022;-86
2023/05/10 02:18:15;;;;;;;0.67;0.30;;;;;;;14.27;100.00;95612.41;5015468;28;20039;-86
2023/05/10 02:20:46;;;;;;;0.87;0.30;;;;;;;14.15;100.00;95621.91;4998276;28;20037;-86
2023/05/10 02:23:13;;;;;;;1.07;0.30;;;;;;;14.10;100.00;95626.97;4993981;28;20021;-86
2023/05/10 02:25:40;;;;;;;1.27;0.33;;;;;;;14.13;100.00;95626.59;5014649;28;20029;-86
2023/05/10 02:28:07;;;;;;;1.10;0.30;;;;;;;13.97;100.00;95632.19;5015307;28;20029;-86
2023/05/10 02:30:40;;;;;;;0.33;0.33;;;;;;;14.00;100.00;95626.53;5012673;28;20021;-85
2023/05/10 02:33:06;;;;;;;1.07;0.40;;;;;;;14.08;100.00;95618.41;5018930;28;20082;-86
2023/05/10 02:35:33;;;;;;;1.27;0.40;;;;;;;13.91;100.00;95626.66;5014365;28;20121;-86
2023/05/10 02:38:00;;;;;;;0.63;0.57;;;;;;;13.72;100.00;95640.59;4992030;28;20120;-86
2023/05/10 02:40:27;;;;;;;1.13;0.60;;;;;;;13.61;100.00;95641.94;5017237;28;20048;-86
2023/05/10 02:42:56;;;;;;;0.90;0.50;;;;;;;13.81;100.00;95634.13;5008951;28;20032;-86
2023/05/10 02:45:26;;;;;;;2.57;0.60;;;;;;;13.69;100.00;95635.69;5017172;28;20040;-86
2023/05/10 02:47:52;;;;;;;4.17;0.50;;;;;;;13.71;100.00;95640.78;4985199;28;20029;-86
2023/05/10 02:50:21;;;;;;;3.00;0.83;;;;;;;13.47;100.00;95640.19;5008736;28;20026;-86
2023/05/10 02:52:51;;;;;;;1.27;0.97;;;;;;;13.56;100.00;95640.88;5006525;28;20535;-86
2023/05/10 02:55:21;;;;;;;1.10;0.93;;;;;;;13.55;100.00;95649.84;5006338;28;20029;-86
2023/05/10 02:57:56;;;;;;;2.97;1.27;;;;;;;13.34;100.00;95642.72;5011767;28;20037;-86
2023/05/10 03:00:22;;;;;;;1.10;1.00;;;;;;;13.43;100.00;95658.25;4987966;28;20035;-85
2023/05/10 03:02:52;;;;;;;2.30;1.83;;;;;;;13.43;100.00;95657.44;5009098;28;20437;-85
2023/05/10 03:05:19;;;;;;;1.87;1.33;;;;;;;13.26;100.00;95656.91;5014455;28;20033;-85
2023/05/10 03:07:46;;;;;;;1.80;1.20;;;;;;;13.56;100.00;95657.56;5001939;28;21045;-85
2023/05/10 03:10:13;;;;;;;3.10;1.30;;;;;;;13.54;100.00;95656.09;4988913;28;20079;-85
2023/05/10 03:13:10;;;;;;;2.40;1.30;;;;;;;13.18;100.00;95667.56;5000347;28;20030;-85
2023/05/10 03:15:56;;;;;;;1.90;1.33;;;;;;;13.31;100.00;95657.16;5029025;28;20483;-85
2023/05/10 03:18:28;;;;;;;4.20;1.40;;;;;;;13.05;100.00;95660.34;4990005;28;20040;-85
2023/05/10 03:21:05;;;;;;;4.07;1.50;;;;;;;13.02;100.00;95663.34;5005784;28;20014;-85
2023/05/10 03:23:59;;;;;;;1.60;1.40;;;;;;;13.10;100.00;95667.69;4988382;28;20595;-85
2023/05/10 03:26:28;;;;;;;4.57;1.57;;;;;;;12.89;100.00;95661.41;5015420;28;20025;-85
2023/05/10 03:29:04;;;;;;;3.17;1.50;;;;;;;13.04;100.00;95663.97;5001350;28;20001;-86
2023/05/10 03:31:32;;;;;;;2.00;1.40;;;;;;;13.08;100.00;95667.06;5015858;28;20021;-86
2023/05/10 03:33:58;;;;;;;2.37;1.60;;;;;;;13.16;100.00;95672.22;5013072;28;20025;-85
2023/05/10 03:36:25;;;;;;;3.97;1.73;;;;;;;13.10;100.00;95670.31;5005213;28;20155;-85
2023/05/10 03:38:51;;;;;;;2.17;1.43;;;;;;;13.19;100.00;95671.84;4994786;28;20427;-85
2023/05/10 03:41:34;;;;;;;3.03;1.40;;;;;;;13.37;100.00;95679.34;4995252;28;20037;-85
2023/05/10 03:44:00;;;;;;;3.42;2.08;;;;;;;13.36;100.00;95683.81;4991218;28;20032;-85
2023/05/10 03:46:25;;;;;;;3.50;1.50;;;;;;;13.39;100.00;95683.41;4994981;28;20030;-85
2023/05/10 03:48:52;;;;;;;2.67;1.63;;;;;;;13.25;100.00;95686.97;5012185;28;20329;-85
2023/05/10 03:51:17;;;;;;;2.43;1.63;;;;;;;13.27;100.00;95690.22;4993746;28;20026;-85
2023/05/10 03:53:43;;;;;;;2.17;1.77;;;;;;;13.29;100.00;95688.22;4990538;28;20034;-85
2023/05/10 03:56:09;;;;;;;3.37;1.63;;;;;;;13.22;100.00;95692.59;5010528;28;20051;-85
2023/05/10 03:58:35;;;;;;;2.17;1.50;;;;;;;13.25;100.00;95691.44;4996823;28;20044;-86
2023/05/10 04:01:00;;;;;;;2.23;1.40;;;;;;;13.00;100.00;95696.22;5006512;28;20686;-85
2023/05/10 04:03:26;;;;;;;2.90;1.83;;;;;;;12.93;100.00;95699.59;5010017;28;20032;-85
2023/05/10 04:06:00;;;;;;;2.87;1.70;;;;;;;13.25;100.00;95696.72;4996795;28;20439;-85
2023/05/10 04:08:30;;;;;;;4.03;2.00;;;;;;;13.30;100.00;95689.84;5012543;28;20475;-85
2023/05/10 04:11:07;;;;;;;3.70;2.03;;;;;;;13.50;100.00;95689.19;5001678;28;20033;-85
2023/05/10 04:13:32;;;;;;;3.33;2.10;;;;;;;13.70;100.00;95687.53;4996531;28;20025;-84
2023/05/10 04:15:59;;;;;;;3.80;2.07;;;;;;;13.60;100.00;95687.84;5011273;28;20040;-83
2023/05/10 04:18:25;;;;;;;3.07;1.90;;;;;;;13.40;100.00;95687.69;4985198;28;20756;-86
2023/05/10 04:20:50;;;;;;;3.20;2.23;;;;;;;13.66;100.00;95688.94;5010705;28;20026;-85
2023/05/10 04:23:18;;;;;;;5.17;2.30;;;;;;;13.68;100.00;95678.97;5000092;28;20026;-85
2023/05/10 04:25:43;;;;;;;3.77;2.07;;;;;;;13.73;100.00;95684.50;5013373;28;20029;-85
2023/05/10 04:28:09;;;;;;;3.60;2.40;;;;;;;13.92;100.00;95685.66;5011112;28;20510;-85
2023/05/10 04:30:34;;;;;;;6.97;2.80;;;;;;;13.77;100.00;95685.75;5007467;28;20022;-85
2023/05/10 04:33:04;;;;;;;7.17;4.03;;;;;;;13.90;100.00;95685.03;5013001;28;20037;-87
2023/05/10 04:35:29;;;;;;;4.80;2.53;;;;;;;14.06;100.00;95675.97;5028255;28;20033;-87
2023/05/10 04:37:55;;;;;;;7.13;4.50;;;;;;;14.09;100.00;95679.06;5011775;28;20032;-87
2023/05/10 04:40:20;;;;;;;7.03;3.80;;;;;;;13.95;100.00;95687.06;5003539;28;20036;-87
2023/05/10 04:42:46;;;;;;;6.80;4.70;;;;;;;14.00;100.00;95684.69;4994642;28;20033;-87
2023/05/10 04:45:12;;;;;;;7.57;3.53;;;;;;;13.90;100.00;95688.47;5005443;28;20040;-86
2023/05/10 04:47:38;;;;;;;5.10;3.10;;;;;;;14.01;100.00;95691.59;5022729;28;20100;-85
2023/05/10 04:50:05;;;;;;;4.63;2.67;;;;;;;14.14;100.00;95692.50;5002344;28;20061;-87
2023/05/10 04:52:30;;;;;;;4.27;2.80;;;;;;;13.85;100.00;95685.63;5003251;28;20033;-87
2023/05/10 04:55:16;;;;;;;5.23;2.83;;;;;;;13.80;100.00;95690.66;4997482;28;20387;-87
2023/05/10 04:57:42;;;;;;;5.07;3.23;;;;;;;13.61;100.00;95696.59;5009357;28;20025;-87
2023/05/10 05:00:08;;;;;;;6.27;3.20;;;;;;;13.53;100.00;95702.84;5000278;28;20023;-87
2023/05/10 05:02:38;;;;;;;5.73;3.17;;;;;;;14.05;100.00;95695.47;5012723;28;20064;-87
2023/05/10 05:05:35;;;;;;;4.13;3.00;;;;;;;14.11;100.00;95697.34;4997974;28;20057;-87
2023/05/10 05:08:01;;;;;;;5.60;2.90;;;;;;;13.87;100.00;95691.50;4999799;28;20037;-87
2023/05/10 05:10:26;;;;;;;5.27;3.63;;;;;;;13.97;100.00;95698.28;5008243;28;20396;-87
2023/05/10 05:12:55;;;;;;;4.93;3.20;;;;;;;14.04;100.00;95694.66;4996301;28;20041;-87
2023/05/10 05:15:21;;;;;;;4.87;3.20;;;;;;;14.12;100.00;95702.47;5004182;28;20030;-86
2023/05/10 05:17:48;;;;;;;4.63;3.13;;;;;;;14.14;100.00;95707.53;4992890;28;20021;-86
2023/05/10 05:23:37;;;;;;;5.40;3.30;;;;;;;14.35;100.00;95709.28;5014175;28;20014;-86
2023/05/10 05:26:02;;;;;;;5.17;3.67;;;;;;;14.34;100.00;95713.75;5025508;28;20018;-87
2023/05/10 05:28:32;;;;;;;4.40;3.10;;;;;;;14.12;100.00;95710.41;5004941;28;20308;-87
2023/05/10 05:30:58;;;;;;;8.07;2.93;;;;;;;13.97;100.00;95712.31;5022965;28;20013;-87
2023/05/10 05:33:23;;;;;;;4.67;2.97;;;;;;;14.13;100.00;95717.31;5001213;28;20069;-87
2023/05/10 05:35:50;;;;;;;3.70;2.53;;;;;;;14.29;100.00;95723.31;4997238;28;20021;-87
2023/05/10 05:38:17;;;;;;;3.33;2.40;;;;;;;14.26;100.00;95726.34;5013481;28;20028;-88
2023/05/10 05:40:42;;;;;;;5.67;2.80;;;;;;;14.16;100.00;95724.03;4999706;28;20080;-89
2023/05/10 05:43:08;;;;;;;5.00;2.90;;;;;;;14.28;100.00;95719.81;5006220;28;20021;-88
2023/05/10 05:45:34;;;;;;;4.73;2.97;;;;;;;14.24;100.00;95721.22;5015726;28;20490;-89
2023/05/10 05:48:13;;;;;;;5.13;2.83;;;;;;;14.33;100.00;95728.00;4998069;28;20034;-89
2023/05/10 05:50:38;;;;;;;5.13;3.10;;;;;;;14.24;100.00;95728.34;4987880;28;20107;-89
2023/05/10 05:53:04;;;;;;;5.13;2.70;;;;;;;14.33;100.00;95740.41;5029046;28;20026;-89
2023/05/10 05:55:31;;;;;;;5.30;2.83;;;;;;;14.37;100.00;95737.19;5007145;28;20395;-89
2023/05/10 05:58:03;;;;;;;4.10;2.50;;;;;;;14.32;100.00;95736.97;5001239;28;20029;-89
2023/05/10 06:00:28;;;;;;;5.23;1.80;;;;;;;14.21;100.00;95736.69;4999767;28;20018;-89
2023/05/10 06:02:54;;;;;;;4.30;2.37;;;;;;;14.45;100.00;95745.97;5006536;28;20121;-89
2023/05/10 06:05:32;;;;;;;4.33;1.87;;;;;;;14.59;100.00;95750.38;4996900;28;20033;-90
2023/05/10 06:08:00;;;;;;;3.27;1.70;;;;;;;14.54;100.00;95747.47;5011161;28;20022;-89
2023/05/10 06:10:25;;;;;;;3.83;2.00;;;;;;;14.84;100.00;95745.38;5007729;28;20026;-89
2023/05/10 06:12:51;;;;;;;3.20;1.90;;;;;;;14.62;100.00;95742.03;4995696;28;20044;-89
2023/05/10 06:15:16;;;;;;;4.30;2.53;;;;;;;14.86;100.00;95743.38;5004401;28;20034;-89
2023/05/10 06:17:43;;;;;;;2.47;1.73;;;;;;;14.54;100.00;95737.72;4996412;28;20756;-89
2023/05/10 06:20:09;;;;;;;3.40;1.60;;;;;;;14.83;100.00;95739.28;4996711;28;20028;-89
2023/05/10 06:22:34;;;;;;;3.43;1.57;;;;;;;14.59;100.00;95745.91;5009167;28;20040;-89
2023/05/10 06:25:00;;;;;;;4.23;1.60;;;;;;;14.92;100.00;95747.84;5020107;28;20018;-89
2023/05/10 06:27:26;;;;;;;5.07;1.83;;;;;;;14.98;100.00;95746.25;5001125;28;20569;-88
2023/05/10 06:29:51;;;;;;;5.63;2.60;;;;;;;14.84;100.00;95756.78;5005127;28;20064;-89
2023/05/10 06:32:17;;;;;;;4.80;1.97;;;;;;;14.84;100.00;95751.50;4996494;28;20037;-89
2023/05/10 06:34:43;;;;;;;5.10;1.33;;;;;;;14.92;100.00;95755.78;4997966;28;20033;-89
2023/05/10 06:37:09;;;;;;;3.63;1.97;;;;;;;14.95;100.00;95757.22;5026282;28;20507;-89
2023/05/10 06:39:34;;;;;;;3.57;1.87;;;;;;;15.48;100.00;95766.13;5013668;28;20030;-89
2023/05/10 06:42:02;;;;;;;4.63;1.83;;;;;;;15.12;100.00;95755.03;5012277;28;20036;-90
2023/05/10 06:44:31;;;;;;;4.13;1.73;;;;;;;15.49;100.00;95756.34;4996855;28;20022;-89
2023/05/10 06:47:12;;;;;;;3.47;2.03;;;;;;;15.26;100.00;95770.78;5004907;28;20029;-89
2023/05/10 06:49:38;;;;;;;4.47;2.10;;;;;;;15.14;100.00;95764.44;5023583;28;20112;-89
2023/05/10 06:52:04;;;;;;;9.93;2.50;;;;;;;15.27;100.00;95764.47;5012421;28;20044;-89
2023/05/10 06:54:29;;;;;;;4.57;2.30;;;;;;;15.18;100.00;95768.31;5015411;28;20075;-89
2023/05/10 06:56:55;;;;;;;5.43;2.00;;;;;;;15.75;100.00;95761.72;5003020;28;20394;-89
2023/05/10 06:59:21;;;;;;;6.20;2.30;;;;;;;15.35;100.00;95763.47;5014176;28;20021;-90
2023/05/10 07:01:47;;;;;;;3.67;2.10;;;;;;;15.26;100.00;95768.16;4995032;28;20029;-90
2023/05/10 07:04:13;;;;;;;5.63;1.93;;;;;;;15.31;100.00;95764.88;5012271;28;20128;-90
2023/05/10 07:06:43;;;;;;;4.40;2.20;;;;;;;15.39;100.00;95767.38;4999699;28;20034;-89
2023/05/10 07:09:08;;;;;;;6.73;1.97;;;;;;;15.65;100.00;95769.22;5017208;28;20117;-89
2023/05/10 07:11:34;;;;;;;4.20;2.00;;;;;;;15.94;100.00;95760.09;5010529;28;20650;-89
2023/05/10 07:14:00;;;;;;;4.30;2.23;;;;;;;16.33;100.00;95753.16;4996755;28;20590;-89
2023/05/10 07:16:26;;;;;;;5.30;2.13;;;;;;;15.88;100.00;95763.56;5001124;28;20029;-89
2023/05/10 07:18:52;;;;;;;5.50;2.10;;;;;;;15.52;100.00;95769.19;5012850;28;20024;-88
2023/05/10 07:21:18;;;;;;;3.63;2.33;;;;;;;15.71;100.00;95771.09;5018723;28;20471;-89
2023/05/10 07:23:44;;;;;;;3.83;2.23;;;;;;;15.93;100.00;95778.88;5003573;28;20036;-89
2023/05/10 07:26:10;;;;;;;5.27;1.73;;;;;;;16.13;100.00;95771.75;5005743;28;20033;-89
2023/05/10 07:28:37;;;;;;;5.07;2.37;;;;;;;16.16;100.00;95771.34;5014711;28;20026;-89
2023/05/10 07:31:03;;;;;;;4.53;2.00;;;;;;;16.10;100.00;95771.34;5017049;28;20123;-90
2023/05/10 07:33:28;;;;;;;4.00;2.10;;;;;;;16.10;100.00;95776.63;5006388;28;20056;-90
2023/05/10 07:35:54;;;;;;;4.13;2.10;;;;;;;16.14;100.00;95773.38;5002325;28;20134;-89
2023/05/10 07:38:19;;;;;;;8.60;2.23;;;;;;;16.06;100.00;95780.69;5009207;28;20029;-90
2023/05/10 07:40:45;;;;;;;4.17;2.00;;;;;;;16.12;100.00;95778.03;5001999;28;20475;-89
2023/05/10 07:43:10;;;;;;;5.77;2.40;;;;;;;16.45;100.00;95769.25;4995963;28;20030;-90
2023/05/10 07:45:44;;;;;;;5.20;2.20;;;;;;;16.90;100.00;95769.34;4998423;28;20029;-90
2023/05/10 07:48:10;;;;;;;4.97;2.00;;;;;;;17.09;100.00;95772.94;5019659;28;20100;-90
2023/05/10 07:50:35;;;;;;;4.70;1.80;;;;;;;17.16;100.00;95771.06;5003644;28;20034;-90
2023/05/10 07:53:01;;;;;;;4.63;1.80;;;;;;;16.73;100.00;95761.00;5000160;28;20140;-90
2023/05/10 07:55:26;;;;;;;5.03;1.73;;;;;;;16.83;100.00;95776.50;5013087;28;20083;-90
2023/05/10 07:57:52;;;;;;;3.55;1.80;;;;;;;16.85;100.00;95771.81;4999664;28;20033;-89
2023/05/10 08:00:19;;;;;;;4.28;1.90;;;;;;;16.63;100.00;95776.53;5002638;28;20013;-90
2023/05/10 08:02:46;;;;;;;4.10;2.25;;;;;;;16.88;100.00;95774.06;5005750;28;20045;-89
2023/05/10 08:05:11;;;;;;;5.00;2.03;;;;;;;16.68;100.00;95768.78;5004550;28;20030;-89
2023/05/10 08:07:39;;;;;;;4.38;1.58;;;;;;;16.58;100.00;95779.03;5001602;28;20471;-90
2023/05/10 08:10:05;;;;;;;3.83;1.80;;;;;;;16.90;100.00;95769.34;4995873;28;20022;-90
2023/05/10 08:12:31;;;;;;;4.72;1.88;;;;;;;16.70;100.00;95766.75;4996316;28;20034;-90
2023/05/10 08:14:57;;;;;;;3.75;1.90;;;;;;;16.49;100.00;95771.25;4999143;28;20021;-90
2023/05/10 08:17:26;;;;;;;1.98;1.35;;;;;;;16.28;100.00;95790.09;4999189;28;20372;-90
2023/05/10 08:19:52;;;;;;;3.08;1.48;;;;;;;16.33;100.00;95798.25;5009487;28;20033;-90
2023/05/10 08:22:22;;;;;;;3.05;1.85;;;;;;;16.21;100.00;95794.59;5007012;28;20041;-90
2023/05/10 08:24:49;;;;;;;2.70;1.47;;;;;;;16.36;100.00;95792.50;4999864;28;20029;-90
2023/05/10 08:27:14;;;;;;;2.67;1.37;;;;;;;16.68;100.00;95788.19;4989384;28;20049;-88
2023/05/10 08:29:40;;;;;;;3.13;1.23;;;;;;;16.96;100.00;95792.41;4999252;28;20056;-88
2023/05/10 08:32:06;;;;;;;2.33;1.30;;;;;;;17.09;100.00;95792.34;4991573;28;20037;-89
2023/05/10 08:34:31;;;;;;;2.67;1.48;;;;;;;18.11;100.00;95784.44;4997665;28;20033;-89
2023/05/10 08:37:01;;;;;;;2.03;1.08;;;;;;;18.10;100.00;95782.78;4990341;28;20030;-89
2023/05/10 08:39:27;;;;;;;4.07;1.52;;;;;;;18.31;100.00;95784.25;5013423;28;20030;-89
2023/05/10 08:41:57;;;;;;;4.03;1.83;;;;;;;18.56;100.00;95779.69;4998035;28;20042;-89
2023/05/10 08:44:23;;;;;;;8.02;4.22;;;;;;;18.45;100.00;95780.44;5013899;28;20038;-89
2023/05/10 08:46:53;;;;;;;5.18;2.78;;;;;;;18.18;100.00;95784.38;5005916;28;20030;-89
2023/05/10 08:49:20;;;;;;;4.45;1.60;;;;;;;17.85;100.00;95796.06;4998021;28;20401;-89
2023/05/10 08:51:55;;;;;;;1.70;1.05;;;;;;;17.20;100.00;95788.22;5013764;28;20048;-89
2023/05/10 08:54:22;;;;;;;2.97;1.55;;;;;;;16.87;100.00;95793.69;4995712;28;20040;-89
2023/05/10 08:56:47;;;;;;;1.88;1.23;;;;;;;16.20;100.00;95804.38;4992364;28;20060;-90
2023/05/10 08:59:14;;;;;;;6.22;1.73;;;;;;;16.00;100.00;95814.19;5013975;28;20029;-89
2023/05/10 09:01:45;;;;;;;3.40;1.80;;;;;;;15.72;100.00;95824.94;5014504;28;20065;-89
2023/05/10 09:04:11;;;;;;;4.20;1.58;;;;;;;15.48;100.00;95826.28;5000361;28;20068;-88
2023/05/10 09:06:37;;;;;;;4.20;1.13;;;;;;;15.61;100.00;95836.09;5014721;28;20033;-89
2023/05/10 09:09:03;;;;;;;3.20;1.00;;;;;;;15.71;100.00;95842.69;5000618;28;20032;-90
2023/05/10 09:11:29;;;;;;;2.23;1.23;;;;;;;15.82;100.00;95843.09;5005141;28;20044;-89
2023/05/10 09:13:55;;;;;;;1.57;0.80;;;;;;;15.51;100.00;95845.25;5022752;28;20026;-90
2023/05/10 09:16:22;;;;;;;1.70;1.10;;;;;;;15.23;100.00;95847.19;4997999;28;20038;-89
2023/05/10 09:18:49;;;;;;;1.80;0.90;;;;;;;15.26;100.00;95844.16;4997981;28;20116;-89
2023/05/10 09:21:15;;;;;;;2.67;1.13;;;;;;;15.42;100.00;95833.19;5002296;28;20028;-90
2023/05/10 09:23:46;;;;;;;2.70;1.10;;;;;;;15.31;100.00;95845.19;5000664;28;20025;-90
2023/05/10 09:26:12;;;;;;;4.53;1.20;;;;;;;15.05;100.00;95850.34;4997349;28;20164;-90
2023/05/10 09:28:58;;;;;;;0.97;0.73;;;;;;;15.07;100.00;95857.09;5006474;28;20116;-90
2023/05/10 09:31:25;;;;;;;2.87;1.07;;;;;;;15.53;100.00;95845.06;4995668;28;20034;-89
2023/05/10 09:33:52;;;;;;;2.33;1.40;;;;;;;15.79;100.00;95850.47;5003486;28;20437;-90
2023/05/10 09:36:17;;;;;;;2.95;1.60;;;;;;;15.89;100.00;95860.66;5025115;28;20032;-90
2023/05/10 09:38:47;;;;;;;3.70;1.60;;;;;;;15.84;100.00;95865.75;5013700;28;20467;-90
2023/05/10 09:41:21;;;;;;;1.50;0.90;;;;;;;15.83;100.00;95863.28;5014099;28;20052;-91
2023/05/10 09:43:47;;;;;;;3.55;1.50;;;;;;;16.11;100.00;95865.81;4992762;28;20037;-90
2023/05/10 09:46:12;;;;;;;3.45;1.08;;;;;;;16.32;100.00;95860.28;5018098;28;20028;-91
2023/05/10 09:48:46;;;;;;;2.60;1.20;;;;;;;16.37;100.00;95857.03;5013420;28;20037;-90
2023/05/10 09:51:20;;;;;;;3.45;1.20;;;;;;;16.32;100.00;95862.13;4997378;28;20018;-90
2023/05/10 09:53:46;;;;;;;2.00;1.10;;;;;;;16.39;100.00;95854.97;5001072;28;20089;-90
2023/05/10 09:56:11;;;;;;;3.60;1.55;;;;;;;16.32;100.00;95862.94;4997711;28;20628;-90
2023/05/10 09:58:40;;;;;;;1.30;1.00;;;;;;;16.35;100.00;95864.38;5020747;28;20026;-89
2023/05/10 10:01:11;;;;;;;1.73;0.82;;;;;;;16.36;100.00;95860.69;5000327;28;20025;-90
2023/05/10 10:03:43;;;;;;;1.50;1.00;;;;;;;16.68;100.00;95859.84;4994418;28;20033;-90
2023/05/10 10:06:08;;;;;;;0.75;0.70;;;;;;;16.65;100.00;95849.66;5001483;28;20120;-89
2023/05/10 10:08:34;;;;;;;1.65;0.98;;;;;;;16.42;100.00;95863.34;5014847;28;20036;-90
2023/05/10 10:11:01;;;;;;;3.42;1.13;;;;;;;16.55;100.00;95848.44;5004106;28;20036;-90
2023/05/10 10:13:26;;;;;;;2.13;0.82;;;;;;;17.07;100.00;95852.88;4999803;28;20475;-90
2023/05/10 10:15:55;;;;;;;4.68;1.30;;;;;;;16.85;100.00;95847.00;5005203;28;20029;-90
2023/05/10 10:18:26;;;;;;;2.13;1.08;;;;;;;17.51;100.00;95834.50;5013742;28;20026;-90
2023/05/10 10:20:54;;;;;;;3.60;1.10;;;;;;;17.36;100.00;95834.75;5000821;28;20483;-90
2023/05/10 10:23:19;;;;;;;3.33;1.38;;;;;;;17.72;100.00;95836.84;5018225;28;20029;-91
2023/05/10 10:25:48;;;;;;;1.73;1.00;;;;;;;17.68;100.00;95832.97;5002282;28;20082;-91
2023/05/10 10:28:47;;;;;;;2.17;1.30;;;;;;;17.97;100.00;95820.94;4995546;28;20030;-90
2023/05/10 10:31:41;;;;;;;2.63;1.15;;;;;;;17.91;100.00;95829.81;5020086;28;20022;-96
2023/05/10 10:42:09;;;;;;;7.53;4.47;;;;;;;17.87;100.00;95826.75;4946682;28;20066;-94
2023/05/10 10:48:53;;;;;;;2.60;1.00;;;;;;;18.31;100.00;95821.53;4986059;28;20056;-94
2023/05/10 10:52:20;;;;;;;1.10;0.90;;;;;;;17.99;100.00;95823.41;5006056;28;20090;-94
2023/05/10 10:55:22;;;;;;;2.25;0.80;;;;;;;17.73;100.00;95819.03;5010629;28;20025;-90
2023/05/10 10:57:48;;;;;;;1.40;1.00;;;;;;;17.98;100.00;95824.44;4988637;28;20061;-89
2023/05/10 11:00:35;;;;;;;2.65;0.80;;;;;;;18.49;100.00;95816.22;5003644;28;20022;-88
2023/05/10 11:03:07;;;;;;;1.15;0.65;;;;;;;18.29;100.00;95819.06;5002733;28;20483;-89
2023/05/10 11:05:33;;;;;;;1.98;0.68;;;;;;;18.91;100.00;95815.63;5024246;28;20053;-89
2023/05/10 11:08:06;;;;;;;2.00;0.90;;;;;;;18.05;100.00;95823.34;5027305;28;20060;-89
2023/05/10 11:10:32;;;;;;;3.50;0.80;;;;;;;18.31;100.00;95821.53;4995182;28;20065;-89
2023/05/10 11:13:01;;;;;;;1.17;0.88;;;;;;;17.78;100.00;95821.91;5001354;28;20040;-89
2023/05/10 11:15:34;;;;;;;0.85;0.57;;;;;;;17.52;100.00;95828.97;4999571;28;20101;-88
2023/05/10 11:18:15;;;;;;;;;;;;;;;17.43;100.00;95827.56;5002372;28;20294;-88
2023/05/10 11:20:41;;;;;;;1.70;0.55;;;;;;;17.55;100.00;95823.22;4995272;28;19924;-89
2023/05/10 11:23:15;;;;;;;5.45;3.40;;;;;;;17.38;100.00;95832.72;4999639;28;20029;-89
2023/05/10 11:25:45;;;;;;;4.07;2.10;;;;;;;17.54;100.00;95832.25;4994285;28;20053;-89
2023/05/10 11:28:12;;;;;;;3.30;0.80;;;;;;;17.30;100.00;95825.78;5008167;28;20018;-89
2023/05/10 11:30:43;;;;;;;1.15;0.40;;;;;;;17.45;100.00;95825.53;5009446;28;20018;-89
2023/05/10 11:33:16;;;;;;;0.98;0.60;;;;;;;17.53;100.00;95833.25;4997002;28;20036;-89
2023/05/10 11:35:42;;;;;;;;;;;;;;;17.61;100.00;95830.34;5013001;28;20052;-89
2023/05/10 11:38:11;;;;;;;0.60;0.50;;;;;;;17.68;100.00;95833.78;4986581;28;19953;-89
2023/05/10 11:40:38;;;;;;;0.45;0.45;;;;;;;18.10;100.00;95831.47;5007145;28;20033;-89
2023/05/10 11:43:05;;;;;;;2.20;0.50;;;;;;;17.76;100.00;95839.88;4999070;28;20025;-89
2023/05/10 11:45:35;;;;;;;1.40;0.60;;;;;;;17.80;100.00;95835.78;5028438;28;20048;-89
2023/05/10 11:48:02;;;;;;;1.38;0.70;;;;;;;17.79;100.00;95836.81;5005073;28;20395;-89
2023/05/10 11:50:37;;;;;;;1.50;0.98;;;;;;;18.17;100.00;95846.59;4993841;28;20083;-89